createdAt,value
2022-10-13T00:01:54.006Z,18.58
2022-10-13T00:04:39.364Z,21.75
2022-10-13T00:07:24.530Z,15.20
2022-10-13T00:10:09.989Z,25.08
2022-10-13T00:12:55.121Z,12.93
2022-10-13T00:15:42.373Z,14.30
2022-10-13T00:18:27.590Z,10.85
2022-10-13T00:21:15.910Z,14.80
2022-10-13T00:24:01.057Z,8.73
2022-10-13T00:26:45.990Z,17.45
2022-10-13T00:29:30.918Z,15.10
2022-10-13T00:32:16.495Z,13.70
2022-10-13T00:35:01.939Z,12.90
2022-10-13T00:37:47.068Z,23.50
2022-10-13T00:40:32.042Z,17.40
2022-10-13T00:43:24.259Z,15.88
2022-10-13T00:46:09.311Z,16.25
2022-10-13T00:48:56.792Z,14.85
2022-10-13T00:51:46.894Z,15.93
2022-10-13T00:54:32.069Z,13.85
2022-10-13T00:57:20.478Z,15.18
2022-10-13T01:00:06.998Z,18.90
2022-10-13T01:02:52.025Z,19.65
2022-10-13T01:05:39.314Z,18.48
2022-10-13T01:08:27.061Z,14.48
2022-10-13T01:11:15.535Z,13.80
2022-10-13T01:14:21.394Z,21.27
2022-10-13T01:17:09.619Z,19.08
2022-10-13T01:20:06.740Z,9.88
2022-10-13T01:22:54.638Z,13.90
2022-10-13T01:26:18.283Z,17.13
2022-10-13T01:29:20.930Z,14.20
2022-10-13T01:32:34.939Z,13.90
2022-10-13T01:35:54.803Z,14.98
2022-10-13T01:38:53.108Z,15.48
2022-10-13T01:41:41.322Z,12.73
2022-10-13T01:44:32.619Z,13.68
2022-10-13T01:47:19.122Z,16.83
2022-10-13T01:50:06.701Z,19.70
2022-10-13T01:52:52.830Z,8.73
2022-10-13T01:55:47.952Z,12.65
2022-10-13T01:58:36.127Z,17.95
2022-10-13T02:01:24.362Z,18.23
2022-10-13T02:04:35.930Z,13.43
2022-10-13T02:07:28.055Z,15.70
2022-10-13T02:10:20.393Z,13.13
2022-10-13T02:13:08.615Z,18.05
2022-10-13T02:15:57.773Z,15.48
2022-10-13T02:18:44.173Z,17.70
2022-10-13T02:21:29.140Z,14.45
2022-10-13T02:24:14.828Z,17.25
2022-10-13T02:27:00.087Z,14.18
2022-10-13T02:29:50.292Z,10.57
2022-10-13T02:32:35.651Z,12.38
2022-10-13T02:35:21.075Z,10.85
2022-10-13T02:38:06.578Z,12.07
2022-10-13T02:40:51.844Z,11.38
2022-10-13T02:43:38.658Z,13.27
2022-10-13T02:46:23.831Z,12.70
2022-10-13T02:49:10.303Z,14.73
2022-10-13T02:51:55.366Z,8.75
2022-10-13T02:54:40.204Z,11.90
2022-10-13T02:57:25.241Z,10.10
2022-10-13T03:00:11.009Z,5.85
2022-10-13T03:02:56.402Z,6.53
2022-10-13T03:05:41.503Z,5.38
2022-10-13T03:08:27.133Z,9.50
2022-10-13T03:11:11.972Z,7.65
2022-10-13T03:13:57.326Z,9.90
2022-10-13T03:16:42.255Z,7.57
2022-10-13T03:19:27.217Z,7.78
2022-10-13T03:22:15.289Z,8.95
2022-10-13T03:25:00.857Z,6.63
2022-10-13T03:27:46.065Z,5.93
2022-10-13T03:30:30.957Z,4.10
2022-10-13T03:33:16.209Z,5.68
2022-10-13T03:36:02.393Z,2.92
2022-10-13T03:38:47.371Z,1.98
2022-10-13T03:41:32.557Z,2.80
2022-10-13T03:44:17.774Z,2.22
2022-10-13T03:47:03.099Z,3.15
2022-10-13T03:49:47.966Z,1.65
2022-10-13T03:52:33.222Z,6.30
2022-10-13T03:55:18.259Z,4.60
2022-10-13T03:58:03.553Z,4.03
2022-10-13T04:00:49.174Z,0.82
2022-10-13T04:03:34.750Z,1.73
2022-10-13T04:06:20.191Z,3.95
2022-10-13T04:09:05.649Z,2.83
2022-10-13T04:11:51.619Z,2.22
2022-10-13T04:14:36.665Z,2.53
2022-10-13T04:17:21.594Z,1.17
2022-10-13T04:20:07.372Z,2.88
2022-10-13T04:22:52.280Z,3.53
2022-10-13T04:25:39.131Z,4.50
2022-10-13T04:28:24.773Z,1.10
2022-10-13T04:31:10.067Z,1.45
2022-10-13T04:33:55.466Z,1.73
2022-10-13T04:36:40.730Z,2.33
2022-10-13T04:39:25.579Z,3.60
2022-10-13T04:42:10.843Z,3.55
2022-10-13T04:44:55.672Z,1.60
2022-10-13T04:47:40.800Z,2.80
2022-10-13T04:50:25.952Z,0.90
2022-10-13T04:53:14.253Z,3.55
2022-10-13T04:56:08.320Z,1.35
2022-10-13T04:58:53.601Z,1.45
2022-10-13T05:01:38.948Z,1.23
2022-10-13T05:04:24.272Z,3.63
2022-10-13T05:07:18.362Z,2.70
2022-10-13T05:10:05.383Z,3.88
2022-10-13T05:12:51.592Z,4.43
2022-10-13T05:15:39.388Z,4.68
2022-10-13T05:18:25.170Z,3.25
2022-10-13T05:21:14.946Z,3.22
2022-10-13T05:24:02.289Z,3.75
2022-10-13T05:26:47.333Z,2.60
2022-10-13T05:29:32.518Z,4.03
2022-10-13T05:32:17.875Z,5.75
2022-10-13T05:35:03.372Z,3.83
2022-10-13T05:37:48.495Z,3.60
2022-10-13T05:40:33.567Z,1.60
2022-10-13T05:43:18.597Z,3.03
2022-10-13T05:46:04.342Z,4.72
2022-10-13T05:48:49.810Z,3.08
2022-10-13T05:51:53.635Z,2.45
2022-10-13T05:54:52.828Z,2.83
2022-10-13T05:57:42.061Z,3.53
2022-10-13T06:00:28.733Z,3.22
2022-10-13T06:03:17.557Z,3.15
2022-10-13T06:06:03.066Z,3.10
2022-10-13T06:08:49.560Z,2.50
2022-10-13T06:11:34.538Z,5.25
2022-10-13T06:14:19.796Z,4.40
2022-10-13T06:17:05.069Z,4.18
2022-10-13T06:19:50.462Z,4.97
2022-10-13T06:22:36.761Z,6.70
2022-10-13T06:25:21.837Z,4.38
2022-10-13T06:28:07.186Z,5.80
2022-10-13T06:30:56.905Z,3.92
2022-10-13T06:33:41.936Z,4.03
2022-10-13T06:36:27.662Z,4.25
2022-10-13T06:39:12.929Z,5.97
2022-10-13T06:41:58.046Z,5.53
2022-10-13T06:44:43.258Z,4.40
2022-10-13T06:47:28.291Z,6.55
2022-10-13T06:50:13.662Z,7.40
2022-10-13T06:52:59.215Z,5.07
2022-10-13T06:55:47.041Z,9.13
2022-10-13T06:58:35.646Z,7.72
2022-10-13T07:01:20.652Z,6.53
2022-10-13T07:04:06.496Z,7.57
2022-10-13T07:06:51.724Z,7.18
2022-10-13T07:09:36.703Z,9.65
2022-10-13T07:12:22.417Z,7.80
2022-10-13T07:15:08.380Z,8.30
2022-10-13T07:17:54.896Z,9.00
2022-10-13T07:20:39.833Z,11.00
2022-10-13T07:23:26.315Z,10.25
2022-10-13T07:26:14.674Z,9.48
2022-10-13T07:29:00.555Z,11.75
2022-10-13T07:31:46.398Z,13.82
2022-10-13T07:34:31.543Z,12.00
2022-10-13T07:37:16.829Z,8.10
2022-10-13T07:40:02.830Z,6.75
2022-10-13T07:42:48.093Z,7.20
2022-10-13T07:45:33.331Z,7.20
2022-10-13T07:48:18.432Z,7.35
2022-10-13T07:51:09.565Z,6.05
2022-10-13T07:53:54.608Z,8.30
2022-10-13T07:56:39.473Z,8.02
2022-10-13T07:59:24.448Z,4.80
2022-10-13T08:02:10.355Z,8.32
2022-10-13T08:04:55.263Z,4.07
2022-10-13T08:07:40.328Z,5.53
2022-10-13T08:10:26.415Z,4.57
2022-10-13T08:13:11.650Z,5.63
2022-10-13T08:16:00.320Z,4.50
2022-10-13T08:18:46.013Z,8.35
2022-10-13T08:24:36.405Z,5.32
2022-10-13T08:27:37.027Z,4.60
2022-10-13T08:30:31.097Z,7.28
2022-10-13T08:33:16.363Z,8.13
2022-10-13T08:36:01.527Z,10.32
2022-10-13T08:38:47.163Z,8.43
2022-10-13T08:41:37.778Z,6.57
2022-10-13T08:45:21.770Z,11.75
2022-10-13T08:47:47.004Z,8.52
2022-10-13T08:50:35.963Z,14.75
2022-10-13T08:53:34.225Z,16.17
2022-10-13T08:56:24.552Z,18.02
2022-10-13T08:59:14.783Z,14.52
2022-10-13T09:02:00.163Z,17.58
2022-10-13T09:04:49.305Z,19.13
2022-10-13T09:07:37.143Z,17.92
2022-10-13T09:10:22.260Z,26.92
2022-10-13T09:13:09.197Z,21.42
2022-10-13T09:15:56.313Z,21.70
2022-10-13T09:18:41.775Z,24.00
2022-10-13T09:21:26.875Z,19.13
2022-10-13T09:24:16.628Z,19.63
2022-10-13T09:27:12.025Z,18.20
2022-10-13T09:29:56.955Z,15.35
2022-10-13T09:32:41.822Z,13.93
2022-10-13T09:35:26.939Z,9.18
2022-10-13T09:38:22.280Z,14.27
2022-10-13T09:41:10.268Z,10.30
2022-10-13T09:43:55.043Z,9.45
2022-10-13T09:46:53.741Z,8.77
2022-10-13T09:49:41.409Z,7.28
2022-10-13T09:52:27.761Z,5.82
2022-10-13T09:55:32.908Z,5.97
2022-10-13T09:58:34.086Z,4.53
2022-10-13T10:01:26.279Z,3.17
2022-10-13T10:04:16.223Z,3.15
2022-10-13T10:07:09.658Z,1.80
2022-10-13T10:09:58.169Z,2.22
2022-10-13T10:12:44.287Z,2.10
2022-10-13T10:15:49.737Z,1.38
2022-10-13T10:18:58.949Z,2.53
2022-10-13T10:22:04.216Z,2.50
2022-10-13T10:25:02.864Z,7.00
2022-10-13T10:28:24.135Z,1.47
2022-10-13T10:31:21.209Z,1.17
2022-10-13T10:34:32.230Z,0.65
2022-10-13T10:37:21.383Z,0.45
2022-10-13T10:40:31.205Z,0.93
2022-10-13T10:43:48.842Z,0.70
2022-10-13T10:46:42.336Z,0.75
2022-10-13T10:49:32.469Z,0.47
2022-10-13T10:52:26.715Z,1.73
2022-10-13T10:55:34.760Z,0.45
2022-10-13T10:58:38.600Z,1.95
2022-10-13T11:01:34.640Z,0.65
2022-10-13T11:04:33.073Z,1.08
2022-10-13T11:07:24.358Z,3.92
2022-10-13T11:10:18.322Z,0.95
2022-10-13T11:13:16.825Z,1.73
2022-10-13T11:16:31.181Z,1.15
2022-10-13T11:19:31.999Z,0.50
2022-10-13T11:22:20.667Z,1.05
2022-10-13T11:25:43.691Z,2.35
2022-10-13T11:28:41.083Z,1.00
2022-10-13T11:31:48.114Z,4.50
2022-10-13T11:34:34.221Z,3.25
2022-10-13T11:37:19.298Z,1.63
2022-10-13T11:40:28.704Z,1.58
2022-10-13T11:46:14.254Z,1.98
2022-10-13T11:49:14.784Z,2.35
2022-10-13T11:52:19.805Z,1.08
2022-10-13T11:55:17.358Z,1.30
2022-10-13T11:58:32.325Z,1.10
2022-10-13T12:01:19.068Z,3.13
2022-10-13T12:04:14.392Z,2.13
2022-10-13T12:07:05.867Z,1.52
2022-10-13T12:09:54.286Z,2.25
2022-10-13T12:12:47.348Z,3.80
2022-10-13T12:15:35.875Z,1.60
2022-10-13T12:18:35.762Z,1.50
2022-10-13T12:21:23.088Z,2.53
2022-10-13T12:24:09.610Z,2.10
2022-10-13T12:26:55.624Z,5.40
2022-10-13T12:29:41.468Z,1.77
2022-10-13T12:32:32.062Z,3.03
2022-10-13T12:35:20.231Z,1.65
2022-10-13T12:38:19.143Z,2.53
2022-10-13T12:41:04.341Z,1.77
2022-10-13T12:43:50.478Z,1.35
2022-10-13T12:46:59.176Z,1.45
2022-10-13T12:49:44.729Z,8.07
2022-10-13T12:52:30.386Z,4.88
2022-10-13T12:55:19.205Z,1.88
2022-10-13T12:58:04.555Z,1.75
2022-10-13T13:01:14.161Z,1.27
2022-10-13T13:04:02.403Z,1.85
2022-10-13T13:07:00.969Z,2.10
2022-10-13T13:10:00.164Z,1.20
2022-10-13T13:12:47.301Z,0.50
2022-10-13T13:15:34.609Z,2.08
2022-10-13T13:18:39.706Z,0.88
2022-10-13T13:21:24.846Z,3.03
2022-10-13T13:24:21.789Z,1.23
2022-10-13T13:27:17.761Z,1.48
2022-10-13T13:30:02.981Z,2.63
2022-10-13T13:32:48.451Z,0.93
2022-10-13T13:35:33.777Z,4.97
2022-10-13T13:38:19.444Z,0.60
2022-10-13T13:41:04.854Z,0.93
2022-10-13T13:43:50.156Z,0.63
2022-10-13T13:46:35.133Z,4.63
2022-10-13T13:49:20.393Z,5.30
2022-10-13T13:52:05.282Z,1.30
2022-10-13T13:54:51.185Z,1.33
2022-10-13T13:57:36.620Z,0.68
2022-10-13T14:00:22.638Z,0.65
2022-10-13T14:03:07.774Z,0.65
2022-10-13T14:05:52.930Z,1.05
2022-10-13T14:08:42.247Z,1.00
2022-10-13T14:11:27.829Z,1.02
2022-10-13T14:14:13.033Z,2.67
2022-10-13T14:16:59.918Z,0.60
2022-10-13T14:19:45.107Z,0.70
2022-10-13T14:22:30.083Z,3.15
2022-10-13T14:25:15.210Z,1.60
2022-10-13T14:28:00.348Z,0.82
2022-10-13T14:30:45.350Z,1.80
2022-10-13T14:33:30.646Z,1.48
2022-10-13T14:36:15.685Z,1.33
2022-10-13T14:39:01.299Z,3.15
2022-10-13T14:41:46.685Z,2.60
2022-10-13T14:44:32.052Z,1.35
2022-10-13T14:47:17.001Z,2.03
2022-10-13T14:50:02.820Z,2.35
2022-10-13T14:52:48.028Z,1.63
2022-10-13T14:55:33.152Z,2.85
2022-10-13T14:58:18.210Z,2.47
2022-10-13T15:01:03.665Z,1.50
2022-10-13T15:03:49.040Z,3.08
2022-10-13T15:06:34.159Z,3.55
2022-10-13T15:09:21.053Z,3.20
2022-10-13T15:12:10.823Z,1.30
2022-10-13T15:14:55.793Z,3.05
2022-10-13T15:17:40.602Z,2.80
2022-10-13T15:20:25.679Z,3.25
2022-10-13T15:23:10.898Z,2.92
2022-10-13T15:25:58.265Z,2.05
2022-10-13T15:28:45.797Z,2.08
2022-10-13T15:31:31.016Z,1.25
2022-10-13T15:34:16.243Z,1.15
2022-10-13T15:37:01.298Z,1.85
2022-10-13T15:39:46.261Z,1.95
2022-10-13T15:42:31.245Z,1.05
2022-10-13T15:45:16.277Z,1.08
2022-10-13T15:48:02.597Z,3.15
2022-10-13T15:50:47.679Z,4.05
2022-10-13T15:53:32.820Z,1.58
2022-10-13T15:56:18.108Z,2.13
2022-10-13T15:59:04.048Z,2.72
2022-10-13T16:01:49.355Z,1.30
2022-10-13T16:04:37.504Z,4.20
2022-10-13T16:07:22.842Z,1.13
2022-10-13T16:10:09.950Z,3.85
2022-10-13T16:12:55.048Z,3.17
2022-10-13T16:15:40.513Z,1.73
2022-10-13T16:18:33.815Z,2.55
2022-10-13T16:21:25.871Z,2.33
2022-10-13T16:24:11.046Z,2.72
2022-10-13T16:26:56.164Z,2.53
2022-10-13T16:29:41.403Z,3.17
2022-10-13T16:32:26.413Z,3.92
2022-10-13T16:35:11.892Z,1.33
2022-10-13T16:37:57.019Z,6.00
2022-10-13T16:40:42.054Z,1.38
2022-10-13T16:43:27.101Z,2.92
2022-10-13T16:46:14.027Z,3.05
2022-10-13T16:48:59.283Z,1.80
2022-10-13T16:51:44.211Z,2.75
2022-10-13T16:54:29.822Z,3.70
2022-10-13T16:57:14.886Z,4.88
2022-10-13T17:00:00.171Z,2.10
2022-10-13T17:02:45.533Z,3.60
2022-10-13T17:05:30.878Z,3.72
2022-10-13T17:08:16.109Z,4.18
2022-10-13T17:11:01.253Z,2.83
2022-10-13T17:13:46.614Z,5.38
2022-10-13T17:16:32.728Z,4.80
2022-10-13T17:19:17.858Z,3.38
2022-10-13T17:22:02.895Z,8.05
2022-10-13T17:24:48.472Z,4.22
2022-10-13T17:27:37.240Z,3.33
2022-10-13T17:30:22.564Z,6.57
2022-10-13T17:33:08.739Z,4.25
2022-10-13T17:35:59.339Z,3.47
2022-10-13T17:38:45.826Z,5.80
2022-10-13T17:41:31.245Z,4.90
2022-10-13T17:44:20.412Z,3.33
2022-10-13T17:47:05.613Z,4.22
2022-10-13T17:49:50.790Z,5.78
2022-10-13T17:52:36.051Z,3.05
2022-10-13T17:55:21.089Z,4.75
2022-10-13T17:58:06.210Z,4.35
2022-10-13T18:01:11.793Z,4.60
2022-10-13T18:03:59.017Z,3.45
2022-10-13T18:06:45.032Z,6.00
2022-10-13T18:09:30.197Z,4.55
2022-10-13T18:12:15.662Z,6.88
2022-10-13T18:15:00.841Z,6.28
2022-10-13T18:17:46.242Z,4.22
2022-10-13T18:20:31.586Z,6.22
2022-10-13T18:23:16.604Z,3.58
2022-10-13T18:26:18.878Z,3.60
2022-10-13T18:29:06.090Z,4.28
2022-10-13T18:31:50.931Z,4.70
2022-10-13T18:34:36.206Z,8.98
2022-10-13T18:37:22.009Z,5.13
2022-10-13T18:40:07.951Z,4.68
2022-10-13T18:42:54.916Z,8.90
2022-10-13T18:45:40.210Z,4.82
2022-10-13T18:48:25.269Z,3.47
2022-10-13T18:51:15.897Z,3.80
2022-10-13T18:54:01.472Z,27.60
2022-10-13T18:56:46.509Z,23.02
2022-10-13T18:59:31.654Z,21.42
2022-10-13T19:02:16.993Z,5.93
2022-10-13T19:05:02.201Z,7.30
2022-10-13T19:07:47.311Z,5.43
2022-10-13T19:10:32.436Z,6.38
2022-10-13T19:13:18.390Z,6.47
2022-10-13T19:16:03.883Z,4.13
2022-10-13T19:18:50.175Z,9.63
2022-10-13T19:21:37.084Z,6.43
2022-10-13T19:24:22.281Z,6.90
2022-10-13T19:27:07.242Z,7.32
2022-10-13T19:29:52.591Z,10.60
2022-10-13T19:32:41.010Z,6.60
2022-10-13T19:35:26.690Z,5.43
2022-10-13T19:38:12.953Z,9.70
2022-10-13T19:41:02.633Z,4.25
2022-10-13T19:43:48.329Z,9.43
2022-10-13T19:46:35.338Z,7.20
2022-10-13T19:49:21.905Z,9.10
2022-10-13T19:52:06.927Z,17.45
2022-10-13T19:54:51.973Z,10.90
2022-10-13T19:57:37.069Z,12.27
2022-10-13T20:00:22.079Z,10.30
2022-10-13T20:03:06.984Z,15.18
2022-10-13T20:05:52.150Z,8.38
2022-10-13T20:08:37.345Z,9.65
2022-10-13T20:11:24.024Z,7.30
2022-10-13T20:14:09.606Z,4.80
2022-10-13T20:16:56.818Z,6.30
2022-10-13T20:19:43.282Z,5.47
2022-10-13T20:22:28.524Z,5.60
2022-10-13T20:25:15.113Z,8.60
2022-10-13T20:28:00.410Z,5.95
2022-10-13T20:30:45.339Z,7.07
2022-10-13T20:33:31.252Z,10.13
2022-10-13T20:36:17.812Z,6.80
2022-10-13T20:39:03.877Z,28.02
2022-10-13T20:41:49.117Z,11.80
2022-10-13T20:44:34.173Z,16.33
2022-10-13T20:47:19.704Z,22.48
2022-10-13T20:50:08.394Z,31.83
2022-10-13T20:52:53.329Z,82.30
2022-10-13T20:55:41.890Z,40.28
2022-10-13T20:58:32.192Z,27.42
2022-10-13T21:01:19.265Z,40.25
2022-10-13T21:04:05.212Z,24.25
2022-10-13T21:06:52.411Z,13.65
2022-10-13T21:09:37.766Z,10.35
2022-10-13T21:12:22.929Z,12.02
2022-10-13T21:15:08.706Z,15.27
2022-10-13T21:17:54.443Z,16.83
2022-10-13T21:20:43.599Z,19.95
2022-10-13T21:23:28.466Z,8.88
2022-10-13T21:26:16.352Z,14.30
2022-10-13T21:29:05.917Z,14.95
2022-10-13T21:31:50.882Z,12.98
2022-10-13T21:34:35.871Z,9.23
2022-10-13T21:37:21.395Z,12.65
2022-10-13T21:40:07.775Z,10.75
2022-10-13T21:42:53.209Z,12.73
2022-10-13T21:45:38.498Z,11.93
2022-10-13T21:48:23.675Z,8.70
2022-10-13T21:51:18.529Z,15.05
2022-10-13T21:54:07.840Z,44.25
2022-10-13T21:56:52.777Z,41.45
2022-10-13T21:59:38.228Z,9.43
2022-10-13T22:02:23.351Z,61.85
2022-10-13T22:05:08.936Z,41.20
2022-10-13T22:07:53.831Z,56.33
2022-10-13T22:10:38.868Z,112.57
2022-10-13T22:13:23.893Z,110.88
2022-10-13T22:16:18.635Z,52.60
2022-10-13T22:19:03.777Z,14.63
2022-10-13T22:21:50.212Z,5.85
2022-10-13T22:24:35.463Z,7.22
2022-10-13T22:27:20.592Z,5.65
2022-10-13T22:30:06.999Z,4.15
2022-10-13T22:32:51.829Z,5.90
2022-10-13T22:35:36.923Z,9.68
2022-10-13T22:38:22.127Z,9.35
2022-10-13T22:41:08.264Z,10.43
2022-10-13T22:43:55.745Z,4.30
2022-10-13T22:46:41.415Z,5.22
2022-10-13T22:49:26.414Z,7.93
2022-10-13T22:52:11.747Z,19.63
2022-10-13T22:54:56.605Z,12.18
2022-10-13T22:57:41.614Z,10.85
2022-10-13T23:00:26.498Z,24.25
2022-10-13T23:03:13.853Z,12.05
2022-10-13T23:05:59.022Z,12.93
2022-10-13T23:08:44.215Z,39.60
2022-10-13T23:11:29.479Z,28.20
2022-10-13T23:14:14.450Z,15.07
2022-10-13T23:16:59.383Z,11.57
2022-10-13T23:19:44.374Z,11.88
2022-10-13T23:22:29.346Z,7.60
2022-10-13T23:25:14.242Z,7.43
2022-10-13T23:27:59.522Z,5.50
2022-10-13T23:30:44.528Z,9.68
2022-10-13T23:33:30.145Z,13.77
2022-10-13T23:36:19.232Z,8.23
2022-10-13T23:39:06.314Z,15.23
2022-10-13T23:41:51.635Z,14.82
2022-10-13T23:44:36.775Z,17.23
2022-10-13T23:47:22.038Z,7.20
2022-10-13T23:50:07.337Z,19.65
2022-10-13T23:52:52.612Z,15.13
2022-10-13T23:55:39.334Z,48.92
2022-10-13T23:58:24.610Z,35.53
